Time;durP1;ratioP1;P1;durP2;ratioP2;P2;SDS_P1;SDS_P2;PMS_P1;PMS_P2;Temp;Humidity;BMP_temperature;BMP_pressure;BME280_temperature;BME280_humidity;BME280_pressure;Samples;Min_cycle;Max_cycle;Signal;HPM_P1;HPM_P2
2022/03/04 00:00:06;;;;;;;15.35;10.07;;;4.20;50.50;;;;;;4981286;28;20060;-80
2022/03/04 00:02:37;;;;;;;14.07;9.95;;;4.30;50.60;;;;;;5007117;28;20042;-80
2022/03/04 00:05:05;;;;;;;18.48;10.20;;;4.20;50.60;;;;;;5006698;28;20050;-82
2022/03/04 00:07:32;;;;;;;14.65;9.80;;;4.20;50.70;;;;;;4998244;28;20057;-80
2022/03/04 00:09:59;;;;;;;14.93;9.40;;;4.20;50.80;;;;;;4979106;28;20060;-80
2022/03/04 00:12:25;;;;;;;13.75;9.20;;;4.10;50.90;;;;;;4999237;28;20042;-81
2022/03/04 00:14:52;;;;;;;14.60;10.00;;;4.10;51.00;;;;;;4973695;28;20042;-82
2022/03/04 00:17:19;;;;;;;14.95;9.77;;;4.10;51.00;;;;;;4972586;28;20050;-79
2022/03/04 00:19:46;;;;;;;13.57;9.88;;;4.00;51.00;;;;;;4991205;28;20498;-82
2022/03/04 00:22:19;;;;;;;13.75;9.68;;;4.00;51.00;;;;;;4986377;28;20042;-81
2022/03/04 00:24:46;;;;;;;13.70;10.02;;;4.00;51.00;;;;;;4966422;28;20065;-85
2022/03/04 00:27:13;;;;;;;15.13;9.07;;;4.00;51.10;;;;;;4992973;28;20038;-82
2022/03/04 00:29:40;;;;;;;17.27;10.32;;;4.00;51.10;;;;;;4997552;28;20505;-79
2022/03/04 00:32:08;;;;;;;17.27;10.27;;;4.00;51.10;;;;;;4977608;28;20129;-80
2022/03/04 00:34:36;;;;;;;15.63;10.18;;;3.90;51.10;;;;;;4993812;28;20096;-80
2022/03/04 00:37:03;;;;;;;17.75;10.43;;;3.90;51.10;;;;;;4993119;28;20078;-79
2022/03/04 00:39:30;;;;;;;15.07;10.02;;;3.90;51.20;;;;;;4997244;28;20038;-79
2022/03/04 00:41:56;;;;;;;15.95;10.30;;;3.80;51.30;;;;;;4991226;28;20042;-79
2022/03/04 00:44:23;;;;;;;17.58;10.85;;;3.80;51.50;;;;;;5010101;28;20041;-79
2022/03/04 00:46:50;;;;;;;15.18;10.18;;;3.80;51.50;;;;;;5000506;28;20073;-80
2022/03/04 00:49:17;;;;;;;16.65;10.98;;;3.80;51.50;;;;;;4999271;28;20121;-78
2022/03/04 00:51:44;;;;;;;15.65;11.00;;;3.70;51.40;;;;;;4993107;28;20039;-81
2022/03/04 00:54:11;;;;;;;13.73;9.55;;;3.70;51.50;;;;;;4998507;28;20133;-79
2022/03/04 00:56:38;;;;;;;18.90;10.70;;;3.70;51.50;;;;;;4989744;28;20046;-79
2022/03/04 00:59:05;;;;;;;15.35;9.27;;;3.60;51.60;;;;;;4981230;28;20068;-79
2022/03/04 01:01:32;;;;;;;15.73;10.18;;;3.60;51.50;;;;;;5001714;28;20050;-80
2022/03/04 01:04:00;;;;;;;13.38;9.27;;;3.60;51.50;;;;;;4986746;28;20054;-81
2022/03/04 01:06:26;;;;;;;16.08;10.68;;;3.60;51.50;;;;;;4963454;28;20039;-81
2022/03/04 01:08:53;;;;;;;15.90;10.07;;;3.60;51.70;;;;;;4997261;28;20125;-82
2022/03/04 01:11:20;;;;;;;15.73;9.93;;;3.50;52.40;;;;;;4991598;28;20050;-79
2022/03/04 01:13:47;;;;;;;16.98;10.35;;;3.50;51.90;;;;;;4989781;28;20403;-82
2022/03/04 01:16:14;;;;;;;15.10;9.85;;;3.50;52.00;;;;;;5002447;28;20100;-81
2022/03/04 01:18:41;;;;;;;15.82;10.00;;;3.50;52.00;;;;;;5002415;28;20042;-80
2022/03/04 01:21:08;;;;;;;13.85;10.00;;;3.40;52.00;;;;;;5011084;28;20048;-81
2022/03/04 01:23:34;;;;;;;13.55;8.63;;;3.40;52.00;;;;;;4953012;28;20062;-79
2022/03/04 01:26:03;;;;;;;15.15;9.70;;;3.40;52.10;;;;;;5004902;28;20046;-80
2022/03/04 01:28:30;;;;;;;15.50;9.85;;;3.30;52.00;;;;;;4987464;28;20061;-80
2022/03/04 01:30:57;;;;;;;14.98;9.23;;;3.30;52.10;;;;;;5008620;28;20050;-79
2022/03/04 01:33:24;;;;;;;14.65;9.35;;;3.30;52.20;;;;;;4981661;28;20379;-80
2022/03/04 01:35:51;;;;;;;14.25;9.82;;;3.30;52.30;;;;;;4999847;28;20037;-79
2022/03/04 01:38:18;;;;;;;14.27;9.13;;;3.30;52.30;;;;;;4990070;28;20514;-78
2022/03/04 01:40:45;;;;;;;13.77;9.35;;;3.20;52.30;;;;;;4989547;28;20093;-80
2022/03/04 01:43:12;;;;;;;13.55;8.88;;;3.20;52.30;;;;;;4991741;28;20046;-79
2022/03/04 01:45:39;;;;;;;14.07;9.23;;;3.20;52.40;;;;;;5001567;28;20053;-80
2022/03/04 01:48:06;;;;;;;11.57;8.85;;;3.20;53.10;;;;;;5008495;28;20486;-79
2022/03/04 01:50:33;;;;;;;15.38;10.20;;;3.20;53.00;;;;;;4976021;28;20050;-83
2022/03/04 01:53:00;;;;;;;13.02;9.90;;;3.20;52.40;;;;;;4971585;28;20046;-79
2022/03/04 01:55:27;;;;;;;15.68;9.13;;;3.10;52.40;;;;;;4956520;28;20047;-82
2022/03/04 01:57:54;;;;;;;14.57;9.38;;;3.10;52.50;;;;;;4958406;28;20046;-79
2022/03/04 02:00:22;;;;;;;12.73;8.27;;;3.10;52.50;;;;;;4980647;28;20038;-83
2022/03/04 02:02:49;;;;;;;13.60;9.35;;;3.10;52.60;;;;;;4963866;28;20046;-79
2022/03/04 02:05:18;;;;;;;15.93;9.95;;;3.10;52.70;;;;;;4964728;28;20450;-80
2022/03/04 02:07:45;;;;;;;12.13;8.88;;;3.10;52.80;;;;;;4989564;28;20046;-79
2022/03/04 02:10:12;;;;;;;14.20;9.40;;;3.10;52.70;;;;;;4989953;28;20042;-79
2022/03/04 02:12:39;;;;;;;16.45;9.57;;;3.10;52.80;;;;;;4984150;28;20060;-79
2022/03/04 02:15:07;;;;;;;17.70;11.30;;;3.00;52.80;;;;;;4989177;28;20116;-80
2022/03/04 02:17:35;;;;;;;12.82;8.93;;;3.10;52.90;;;;;;4972079;28;20041;-80
2022/03/04 02:20:04;;;;;;;14.65;9.93;;;3.10;52.90;;;;;;4999030;28;20045;-80
2022/03/04 02:22:32;;;;;;;15.70;9.63;;;3.00;52.90;;;;;;4991537;28;20055;-80
2022/03/04 02:24:59;;;;;;;16.23;9.15;;;3.00;52.90;;;;;;5009165;28;20045;-79
2022/03/04 02:27:26;;;;;;;17.65;9.70;;;3.00;53.00;;;;;;4994133;28;20049;-80
2022/03/04 02:29:53;;;;;;;16.23;9.90;;;3.00;53.00;;;;;;5006521;28;20045;-80
2022/03/04 02:32:20;;;;;;;15.73;9.60;;;3.00;53.00;;;;;;4999667;28;20048;-80
2022/03/04 02:34:47;;;;;;;16.58;10.20;;;3.00;53.00;;;;;;5007181;28;20164;-80
2022/03/04 02:37:14;;;;;;;13.48;9.95;;;3.00;53.20;;;;;;4979509;28;20406;-79
2022/03/04 02:39:42;;;;;;;13.88;9.63;;;3.00;53.40;;;;;;4986925;28;20042;-79
2022/03/04 02:42:09;;;;;;;17.23;10.23;;;3.10;53.50;;;;;;4988622;28;20045;-79
2022/03/04 02:44:37;;;;;;;17.45;9.88;;;3.00;53.40;;;;;;4990492;28;20046;-79
2022/03/04 02:47:04;;;;;;;15.65;10.90;;;3.10;53.50;;;;;;4969590;28;20050;-81
2022/03/04 02:49:31;;;;;;;14.95;11.32;;;3.10;53.50;;;;;;4992090;28;20074;-80
2022/03/04 02:51:58;;;;;;;20.95;11.48;;;3.10;53.50;;;;;;5000374;28;20058;-80
2022/03/04 02:54:24;;;;;;;15.52;10.48;;;3.20;53.40;;;;;;4998199;28;20046;-79
2022/03/04 02:56:51;;;;;;;17.30;12.02;;;3.10;53.30;;;;;;4989849;28;20085;-80
2022/03/04 02:59:18;;;;;;;16.02;10.35;;;3.20;53.30;;;;;;4985025;28;20783;-80
2022/03/04 03:01:46;;;;;;;19.48;11.02;;;3.10;53.20;;;;;;4999417;28;20030;-81
2022/03/04 03:04:13;;;;;;;19.38;10.88;;;3.20;53.20;;;;;;5008805;28;20054;-79
2022/03/04 03:06:41;;;;;;;18.00;11.18;;;3.20;53.20;;;;;;4996945;28;20065;-79
2022/03/04 03:09:08;;;;;;;18.40;11.02;;;3.10;53.00;;;;;;4997237;28;20121;-79
2022/03/04 03:11:36;;;;;;;18.15;10.60;;;3.10;53.10;;;;;;5004970;28;20054;-80
2022/03/04 03:14:03;;;;;;;16.35;10.75;;;3.10;53.20;;;;;;5007853;28;20049;-80
2022/03/04 03:16:30;;;;;;;15.45;10.15;;;3.10;53.20;;;;;;4986007;28;20037;-79
2022/03/04 03:18:57;;;;;;;15.57;10.20;;;3.10;53.20;;;;;;5007473;28;20096;-80
2022/03/04 03:21:23;;;;;;;15.63;9.75;;;2.90;53.20;;;;;;5003983;28;20049;-80
2022/03/04 03:23:52;;;;;;;17.15;10.93;;;3.10;53.40;;;;;;4998054;28;20054;-81
2022/03/04 03:26:19;;;;;;;17.77;10.23;;;3.10;53.30;;;;;;4991596;28;20045;-79
2022/03/04 03:28:46;;;;;;;15.90;10.50;;;3.10;53.40;;;;;;5001549;28;20502;-81
2022/03/04 03:31:13;;;;;;;16.45;10.57;;;3.10;53.50;;;;;;4993177;28;20050;-80
2022/03/04 03:33:41;;;;;;;18.02;12.13;;;3.00;53.40;;;;;;4988300;28;20130;-80
2022/03/04 03:36:08;;;;;;;17.17;10.57;;;3.10;53.50;;;;;;4984133;28;20108;-80
2022/03/04 03:38:35;;;;;;;17.27;10.50;;;3.00;53.50;;;;;;4982968;28;20042;-81
2022/03/04 03:41:02;;;;;;;18.17;11.20;;;3.10;53.60;;;;;;4991775;28;20049;-79
2022/03/04 03:43:40;;;;;;;17.35;11.32;;;3.10;53.60;;;;;;4985015;28;20054;-80
2022/03/04 03:46:07;;;;;;;17.02;11.43;;;3.10;53.50;;;;;;5004537;28;20431;-79
2022/03/04 03:48:34;;;;;;;16.45;11.05;;;3.00;53.50;;;;;;5003696;28;20058;-80
2022/03/04 03:51:02;;;;;;;18.40;11.18;;;3.10;53.40;;;;;;4989310;28;20112;-80
2022/03/04 03:53:29;;;;;;;17.73;11.55;;;3.00;53.40;;;;;;4976715;28;20391;-81
2022/03/04 03:55:55;;;;;;;19.63;10.70;;;3.00;53.50;;;;;;5007535;28;20050;-79
2022/03/04 03:58:22;;;;;;;14.18;9.13;;;3.00;53.40;;;;;;4997798;28;20513;-80
2022/03/04 04:00:49;;;;;;;16.55;10.00;;;3.00;53.40;;;;;;4991163;28;20038;-79
2022/03/04 04:03:16;;;;;;;18.45;10.52;;;3.00;53.50;;;;;;4996755;28;20161;-79
2022/03/04 04:05:43;;;;;;;19.42;11.13;;;2.90;53.40;;;;;;5001776;28;20049;-80
2022/03/04 04:08:10;;;;;;;18.73;10.82;;;2.90;53.50;;;;;;5010106;28;20042;-75
2022/03/04 04:10:37;;;;;;;16.30;10.38;;;2.90;53.50;;;;;;4986866;28;20054;-79
2022/03/04 04:13:03;;;;;;;16.30;10.23;;;2.90;53.60;;;;;;4982276;28;20045;-81
2022/03/04 04:15:30;;;;;;;17.52;10.57;;;2.90;53.60;;;;;;4986618;28;20066;-79
2022/03/04 04:17:58;;;;;;;18.75;10.82;;;2.90;53.60;;;;;;4994859;28;20089;-80
2022/03/04 04:20:24;;;;;;;18.50;11.43;;;2.80;53.60;;;;;;5009751;28;20060;-79
2022/03/04 04:22:51;;;;;;;16.42;10.32;;;2.80;53.60;;;;;;4985510;28;20055;-79
2022/03/04 04:25:18;;;;;;;17.23;11.00;;;2.80;53.70;;;;;;4980641;28;20063;-81
2022/03/04 04:27:45;;;;;;;19.85;12.20;;;2.70;53.70;;;;;;5004775;28;20038;-79
2022/03/04 04:30:12;;;;;;;19.85;10.82;;;2.80;53.80;;;;;;5003655;28;20125;-79
2022/03/04 04:32:38;;;;;;;21.30;12.43;;;2.70;53.70;;;;;;5006739;28;20064;-79
2022/03/04 04:35:06;;;;;;;20.15;11.35;;;2.70;53.80;;;;;;5009768;28;20034;-79
2022/03/04 04:37:33;;;;;;;15.98;10.68;;;2.70;53.80;;;;;;4993369;28;20121;-82
2022/03/04 04:40:00;;;;;;;13.50;9.98;;;2.60;53.80;;;;;;4985080;28;20045;-80
2022/03/04 04:42:27;;;;;;;19.38;11.27;;;2.60;53.70;;;;;;4992168;28;20128;-80
2022/03/04 04:44:53;;;;;;;17.83;10.52;;;2.60;53.80;;;;;;5000328;28;20045;-82
2022/03/04 04:47:20;;;;;;;15.80;10.50;;;2.50;54.10;;;;;;5011603;28;20053;-80
2022/03/04 04:49:48;;;;;;;18.60;11.45;;;2.50;53.90;;;;;;4997283;28;20525;-79
2022/03/04 04:52:15;;;;;;;18.63;11.70;;;2.50;54.00;;;;;;4983154;28;20046;-81
2022/03/04 04:54:42;;;;;;;20.25;10.98;;;2.50;54.00;;;;;;5007746;28;20080;-79
2022/03/04 04:57:09;;;;;;;16.17;10.55;;;2.50;54.00;;;;;;4996560;28;20061;-79
2022/03/04 04:59:36;;;;;;;18.08;11.20;;;2.40;53.90;;;;;;4998490;28;20038;-74
2022/03/04 05:02:03;;;;;;;19.17;11.35;;;2.40;54.10;;;;;;4998498;28;20046;-75
2022/03/04 05:04:30;;;;;;;17.48;10.75;;;2.40;54.10;;;;;;4993538;28;20050;-75
2022/03/04 05:06:57;;;;;;;16.98;11.80;;;2.40;54.20;;;;;;4997223;28;20049;-75
2022/03/04 05:09:24;;;;;;;19.33;12.43;;;2.30;54.20;;;;;;4989497;28;20043;-74
2022/03/04 05:11:50;;;;;;;16.17;11.32;;;2.30;54.20;;;;;;4999493;28;20042;-75
2022/03/04 05:14:17;;;;;;;19.98;12.65;;;2.30;54.20;;;;;;4997001;28;20042;-74
2022/03/04 05:16:44;;;;;;;21.13;12.25;;;2.30;54.10;;;;;;4992984;28;20058;-79
2022/03/04 05:19:11;;;;;;;18.55;11.88;;;2.30;54.20;;;;;;4992838;28;20474;-78
2022/03/04 05:21:43;;;;;;;17.20;12.07;;;2.20;54.20;;;;;;4954144;28;20051;-78
2022/03/04 05:24:11;;;;;;;18.92;12.30;;;2.20;54.30;;;;;;4953365;28;20053;-81
2022/03/04 05:26:40;;;;;;;21.00;12.88;;;2.20;54.30;;;;;;5001290;28;20042;-79
2022/03/04 05:29:10;;;;;;;20.20;12.63;;;2.20;54.30;;;;;;4982125;28;20530;-78
2022/03/04 05:31:41;;;;;;;17.33;11.40;;;2.20;54.30;;;;;;5005430;28;20042;-80
2022/03/04 05:34:09;;;;;;;20.70;11.95;;;2.10;54.20;;;;;;4999451;28;20033;-77
2022/03/04 05:36:39;;;;;;;19.55;12.55;;;2.20;54.40;;;;;;4991374;28;20043;-78
2022/03/04 05:39:06;;;;;;;18.80;12.50;;;2.10;54.40;;;;;;4976408;28;20566;-78
2022/03/04 05:41:33;;;;;;;16.83;11.93;;;2.10;54.50;;;;;;4993228;28;20046;-77
2022/03/04 05:44:03;;;;;;;21.08;12.02;;;2.10;54.60;;;;;;4972337;28;20061;-78
2022/03/04 05:46:32;;;;;;;20.63;11.45;;;2.10;54.60;;;;;;4988426;28;20053;-78
2022/03/04 05:49:02;;;;;;;19.75;11.50;;;2.00;54.60;;;;;;4992501;28;20562;-78
2022/03/04 05:51:30;;;;;;;17.20;10.95;;;2.00;54.70;;;;;;5008565;28;20041;-78
2022/03/04 05:53:57;;;;;;;19.65;11.45;;;2.00;54.60;;;;;;4980069;28;20153;-79
2022/03/04 05:56:25;;;;;;;21.83;13.48;;;2.00;54.60;;;;;;4988162;28;20438;-80
2022/03/04 05:58:52;;;;;;;16.25;11.52;;;2.00;54.60;;;;;;4990953;28;20046;-78
2022/03/04 06:01:19;;;;;;;16.83;11.15;;;2.00;54.60;;;;;;4989147;28;20042;-79
2022/03/04 06:03:46;;;;;;;18.00;11.00;;;1.90;54.60;;;;;;4988287;28;20047;-79
2022/03/04 06:06:14;;;;;;;16.40;10.52;;;1.90;54.70;;;;;;4986521;28;20088;-83
2022/03/04 06:08:41;;;;;;;19.88;11.15;;;1.90;54.70;;;;;;4970298;28;20093;-79
2022/03/04 06:11:09;;;;;;;18.48;11.80;;;1.90;54.90;;;;;;4989337;28;20490;-79
2022/03/04 06:13:37;;;;;;;19.80;11.43;;;1.90;54.90;;;;;;5052803;23;20580;-52
2022/03/04 06:16:04;;;;;;;17.10;10.85;;;1.90;55.00;;;;;;5013909;28;20099;-49
2022/03/04 06:18:31;;;;;;;23.63;11.38;;;1.80;55.00;;;;;;5010062;28;20038;-51
2022/03/04 06:20:59;;;;;;;20.27;12.38;;;1.80;55.10;;;;;;5008386;28;20042;-47
2022/03/04 06:23:26;;;;;;;17.80;11.18;;;1.80;55.10;;;;;;5002786;28;20049;-51
2022/03/04 06:25:55;;;;;;;21.58;11.45;;;1.80;55.10;;;;;;5022792;28;20052;-50
2022/03/04 06:28:22;;;;;;;18.30;11.00;;;1.80;55.10;;;;;;5008387;28;20509;-52
2022/03/04 06:30:48;;;;;;;19.63;12.32;;;1.80;55.20;;;;;;5016438;28;20104;-48
2022/03/04 06:33:30;;;;;;;19.08;12.25;;;1.80;55.30;;;;;;5021390;28;20412;-48
2022/03/04 06:36:07;;;;;;;19.58;10.65;;;1.80;55.30;;;;;;4993343;28;20050;-49
2022/03/04 06:38:35;;;;;;;17.58;11.65;;;1.80;55.80;;;;;;4993112;28;20469;-49
2022/03/04 06:41:04;;;;;;;17.33;11.15;;;1.80;55.30;;;;;;5008467;28;20038;-54
2022/03/04 06:43:31;;;;;;;18.83;11.10;;;1.80;55.40;;;;;;5015356;28;20105;-50
2022/03/04 06:45:58;;;;;;;21.17;11.55;;;1.80;55.50;;;;;;5013390;28;20049;-51
2022/03/04 06:48:27;;;;;;;19.58;11.88;;;1.80;55.60;;;;;;5009342;28;20053;-49
2022/03/04 06:50:54;;;;;;;20.17;10.63;;;1.80;55.60;;;;;;5014045;28;20045;-52
2022/03/04 06:53:21;;;;;;;17.05;10.65;;;1.80;55.60;;;;;;5016556;28;20065;-51
2022/03/04 06:55:48;;;;;;;20.98;11.55;;;1.90;55.70;;;;;;5010585;28;20065;-49
2022/03/04 06:58:16;;;;;;;19.48;11.63;;;1.80;56.40;;;;;;5016786;28;20034;-51
2022/03/04 07:00:43;;;;;;;17.45;10.65;;;1.90;55.80;;;;;;5017131;28;20046;-52
2022/03/04 07:03:11;;;;;;;16.63;10.68;;;1.90;55.80;;;;;;5019340;28;20136;-49
2022/03/04 07:05:41;;;;;;;18.23;11.30;;;1.90;55.80;;;;;;5025482;28;20076;-49
2022/03/04 07:08:11;;;;;;;18.90;10.48;;;1.90;55.90;;;;;;5029778;28;20044;-49
2022/03/04 07:10:39;;;;;;;21.13;11.35;;;1.90;56.00;;;;;;5008185;28;20088;-49
2022/03/04 07:13:06;;;;;;;18.42;11.68;;;1.90;56.10;;;;;;5017646;28;20091;-49
2022/03/04 07:15:34;;;;;;;24.00;11.10;;;1.90;56.20;;;;;;5024508;28;20038;-51
2022/03/04 07:18:02;;;;;;;21.75;12.05;;;2.00;56.30;;;;;;5034216;28;20121;-50
2022/03/04 07:20:29;;;;;;;18.10;11.23;;;2.00;56.30;;;;;;5015889;28;20053;-50
2022/03/04 07:22:56;;;;;;;20.23;10.75;;;2.00;56.30;;;;;;5022429;28;20046;-50
2022/03/04 07:25:23;;;;;;;18.55;11.18;;;2.00;56.30;;;;;;5013693;28;20103;-50
2022/03/04 07:27:50;;;;;;;20.40;11.60;;;2.10;56.40;;;;;;5012455;28;20070;-51
2022/03/04 07:30:17;;;;;;;18.75;10.98;;;2.10;56.40;;;;;;5010311;28;20080;-53
2022/03/04 07:32:44;;;;;;;19.55;10.95;;;2.10;56.50;;;;;;5021284;28;20076;-51
2022/03/04 07:35:11;;;;;;;20.33;11.55;;;2.20;56.60;;;;;;4992204;28;20105;-53
2022/03/04 07:37:39;;;;;;;18.17;11.38;;;2.20;56.60;;;;;;4996691;28;20042;-51
2022/03/04 07:40:08;;;;;;;19.42;11.57;;;2.20;56.70;;;;;;5014808;28;20033;-52
2022/03/04 07:42:36;;;;;;;19.42;11.32;;;2.20;56.70;;;;;;5017842;28;20045;-50
2022/03/04 07:45:04;;;;;;;24.40;12.65;;;2.30;56.80;;;;;;5022801;28;20501;-50
2022/03/04 07:47:30;;;;;;;21.65;11.73;;;2.30;56.90;;;;;;5020303;28;20045;-51
2022/03/04 07:49:57;;;;;;;22.00;12.52;;;2.40;57.10;;;;;;5022068;28;20065;-53
2022/03/04 07:52:31;;;;;;;21.10;12.52;;;2.40;57.20;;;;;;5026409;28;20128;-51
2022/03/04 07:55:04;;;;;;;20.27;12.20;;;2.50;57.30;;;;;;5014061;28;20472;-50
2022/03/04 07:57:31;;;;;;;20.63;12.98;;;2.50;57.30;;;;;;5009014;28;20115;-52
2022/03/04 07:59:57;;;;;;;21.58;13.50;;;2.60;57.40;;;;;;5011403;28;20049;-54
2022/03/04 08:02:24;;;;;;;21.45;13.57;;;2.60;57.40;;;;;;5012591;28;20096;-53
2022/03/04 08:04:51;;;;;;;20.65;13.05;;;2.70;57.50;;;;;;5011661;28;20412;-51
2022/03/04 08:07:18;;;;;;;21.73;12.95;;;2.80;57.60;;;;;;5024821;28;20099;-50
2022/03/04 08:09:48;;;;;;;23.88;13.35;;;2.80;57.70;;;;;;5022511;28;20103;-52
2022/03/04 08:12:16;;;;;;;21.73;13.73;;;2.90;57.80;;;;;;5010844;28;20045;-53
2022/03/04 08:14:42;;;;;;;23.95;13.63;;;3.00;57.90;;;;;;5014192;28;20042;-49
2022/03/04 08:17:09;;;;;;;23.35;13.95;;;3.10;58.00;;;;;;5009406;28;20045;-50
2022/03/04 08:19:39;;;;;;;20.08;13.35;;;3.10;58.00;;;;;;5013063;28;20494;-54
2022/03/04 08:22:07;;;;;;;26.42;13.98;;;3.30;58.20;;;;;;5017360;28;20736;-49
2022/03/04 08:24:52;;;;;;;29.85;14.35;;;3.40;58.20;;;;;;5006807;28;20465;-53
2022/03/04 08:27:18;;;;;;;20.48;13.55;;;3.50;58.00;;;;;;5010941;28;20111;-52
2022/03/04 08:29:45;;;;;;;26.33;14.73;;;3.60;57.90;;;;;;5012066;28;20038;-54
2022/03/04 08:32:12;;;;;;;23.48;14.23;;;3.70;57.90;;;;;;5023859;28;20046;-49
2022/03/04 08:34:39;;;;;;;26.00;14.95;;;3.80;57.90;;;;;;5017166;28;20042;-53
2022/03/04 08:37:06;;;;;;;23.27;14.07;;;3.90;57.80;;;;;;5021929;28;20068;-50
2022/03/04 08:39:32;;;;;;;23.55;14.73;;;4.00;57.60;;;;;;5011822;28;20089;-50
2022/03/04 08:42:05;;;;;;;24.17;14.18;;;4.10;57.50;;;;;;5020811;28;20072;-50
2022/03/04 08:44:32;;;;;;;25.13;14.88;;;4.20;57.40;;;;;;5010385;28;20046;-53
2022/03/04 08:46:59;;;;;;;25.50;15.30;;;4.30;57.20;;;;;;5021219;28;20089;-52
2022/03/04 08:49:26;;;;;;;25.55;14.63;;;4.40;57.10;;;;;;5016604;28;20061;-50
2022/03/04 08:51:53;;;;;;;23.30;14.25;;;4.50;56.80;;;;;;5028073;28;20042;-49
2022/03/04 08:54:19;;;;;;;26.40;16.20;;;4.60;56.70;;;;;;5024545;28;20041;-51
2022/03/04 08:56:46;;;;;;;28.70;16.25;;;4.70;56.50;;;;;;5010826;28;20119;-53
2022/03/04 08:59:13;;;;;;;24.35;15.25;;;4.80;56.40;;;;;;5011634;28;20049;-53
2022/03/04 09:01:40;;;;;;;25.17;14.63;;;4.90;56.30;;;;;;5010977;28;20054;-52
2022/03/04 09:04:07;;;;;;;29.30;16.17;;;5.00;56.10;;;;;;5013325;28;20038;-53
2022/03/04 09:06:33;;;;;;;24.05;15.35;;;5.10;56.10;;;;;;5021436;28;20088;-54
2022/03/04 09:09:00;;;;;;;25.08;14.60;;;5.20;55.90;;;;;;5019617;28;20038;-51
2022/03/04 09:11:27;;;;;;;25.70;15.40;;;5.30;55.90;;;;;;5006789;28;20834;-49
2022/03/04 09:13:54;;;;;;;27.05;16.10;;;5.40;55.90;;;;;;5018310;28;20050;-52
2022/03/04 09:16:22;;;;;;;26.83;16.27;;;5.40;55.70;;;;;;5023724;28;20476;-54
2022/03/04 09:18:48;;;;;;;25.20;15.50;;;5.50;55.50;;;;;;5012559;28;20390;-51
2022/03/04 09:21:15;;;;;;;22.90;15.77;;;5.60;55.40;;;;;;4992228;28;20177;-52
2022/03/04 09:23:42;;;;;;;26.45;14.85;;;5.70;55.30;;;;;;5021431;28;20080;-51
2022/03/04 09:26:09;;;;;;;26.92;16.20;;;5.80;55.20;;;;;;5011886;28;20078;-53
2022/03/04 09:28:35;;;;;;;29.25;16.70;;;5.80;55.00;;;;;;5010528;28;20037;-49
2022/03/04 09:31:07;;;;;;;27.02;16.83;;;5.90;55.00;;;;;;5007659;28;20041;-55
2022/03/04 09:33:36;;;;;;;25.83;17.15;;;6.00;54.80;;;;;;5019036;28;20048;-53
2022/03/04 09:36:03;;;;;;;26.48;15.57;;;6.10;54.70;;;;;;5021609;28;20102;-50
2022/03/04 09:38:30;;;;;;;25.08;16.70;;;6.10;54.50;;;;;;5015210;28;20037;-52
2022/03/04 09:40:59;;;;;;;28.17;18.20;;;6.20;54.40;;;;;;5011226;28;20050;-54
2022/03/04 09:43:26;;;;;;;26.95;17.33;;;6.30;54.20;;;;;;5023111;28;20126;-50
2022/03/04 09:45:53;;;;;;;28.90;18.23;;;6.40;53.90;;;;;;5030891;28;20108;-51
2022/03/04 09:48:22;;;;;;;30.45;16.70;;;6.40;53.90;;;;;;5014219;28;20045;-51
2022/03/04 09:50:49;;;;;;;27.50;17.92;;;6.50;54.00;;;;;;5012843;28;20102;-51
2022/03/04 09:53:17;;;;;;;26.63;18.40;;;6.50;53.80;;;;;;5022856;28;20106;-54
2022/03/04 09:55:44;;;;;;;28.90;17.83;;;6.60;53.90;;;;;;5027653;28;20045;-49
2022/03/04 09:58:13;;;;;;;26.65;17.65;;;6.70;53.50;;;;;;5010404;28;20061;-53
2022/03/04 10:00:43;;;;;;;25.73;18.08;;;6.80;53.50;;;;;;5005100;28;20069;-51
2022/03/04 10:03:41;;;;;;;29.00;19.30;;;6.80;53.30;;;;;;5019221;28;20049;-54
2022/03/04 10:06:09;;;;;;;28.55;16.42;;;6.90;53.10;;;;;;5029594;28;20068;-51
2022/03/04 10:08:41;;;;;;;27.92;18.08;;;7.00;52.80;;;;;;5011493;28;20100;-51
2022/03/04 10:11:08;;;;;;;31.27;18.45;;;7.00;52.70;;;;;;5023867;28;20108;-53
2022/03/04 10:14:03;;;;;;;26.83;17.70;;;7.10;52.60;;;;;;5012770;28;20408;-52
2022/03/04 10:16:33;;;;;;;27.65;18.42;;;7.20;52.80;;;;;;5006590;28;20054;-50
2022/03/04 10:19:12;;;;;;;27.50;17.55;;;7.20;52.60;;;;;;5005702;28;20046;-54
2022/03/04 10:21:57;;;;;;;28.25;16.77;;;7.30;52.80;;;;;;4998128;28;20070;-51
2022/03/04 10:24:27;;;;;;;23.33;16.23;;;7.40;52.60;;;;;;5004336;28;20046;-50
2022/03/04 10:27:05;;;;;;;27.92;17.98;;;7.40;52.40;;;;;;4997266;28;20077;-51
2022/03/04 10:29:37;;;;;;;26.52;18.38;;;7.50;52.60;;;;;;5007429;28;20042;-51
2022/03/04 10:32:13;;;;;;;23.33;15.93;;;7.50;52.20;;;;;;4999574;28;20045;-53
2022/03/04 10:34:59;;;;;;;24.25;17.98;;;7.60;51.90;;;;;;5006135;28;20505;-53
2022/03/04 10:37:54;;;;;;;26.83;17.60;;;7.70;51.90;;;;;;4996840;28;20091;-54
2022/03/04 10:40:32;;;;;;;25.17;16.73;;;7.70;52.10;;;;;;5004563;28;20046;-50
2022/03/04 10:43:04;;;;;;;22.15;16.00;;;7.80;51.90;;;;;;5013812;28;20030;-54
2022/03/04 10:45:35;;;;;;;28.50;16.27;;;7.80;51.80;;;;;;5004245;28;20050;-52
2022/03/04 10:48:10;;;;;;;25.17;16.52;;;7.90;51.70;;;;;;5005653;28;20042;-53
2022/03/04 10:50:54;;;;;;;27.25;17.40;;;7.90;51.50;;;;;;5002393;28;20900;-52
2022/03/04 10:53:23;;;;;;;23.95;15.68;;;7.90;51.40;;;;;;5000857;28;20045;-50
2022/03/04 10:55:56;;;;;;;24.98;16.77;;;8.10;51.20;;;;;;5011770;28;20050;-50
2022/03/04 10:58:49;;;;;;;24.45;16.88;;;8.10;51.20;;;;;;5010142;28;20045;-52
2022/03/04 11:01:19;;;;;;;25.58;16.33;;;8.20;51.10;;;;;;5002266;28;20042;-51
2022/03/04 11:03:47;;;;;;;22.38;15.43;;;8.20;50.80;;;;;;5007190;28;20049;-51
2022/03/04 11:06:16;;;;;;;22.50;15.93;;;8.30;50.80;;;;;;5013244;28;20409;-50
2022/03/04 11:08:44;;;;;;;21.40;15.18;;;8.40;50.80;;;;;;5020488;28;20041;-53
2022/03/04 11:11:12;;;;;;;22.67;14.20;;;8.40;50.70;;;;;;5008407;28;20042;-51
2022/03/04 11:13:39;;;;;;;21.27;14.43;;;8.50;50.60;;;;;;5006331;28;20033;-50
2022/03/04 11:16:07;;;;;;;20.92;14.63;;;8.50;50.30;;;;;;5017413;28;20073;-51
2022/03/04 11:18:35;;;;;;;22.38;13.52;;;8.60;50.10;;;;;;5016298;28;20124;-50
2022/03/04 11:21:04;;;;;;;19.15;13.60;;;8.60;49.70;;;;;;5015596;28;20050;-52
2022/03/04 11:23:34;;;;;;;19.50;13.98;;;8.70;50.00;;;;;;5007499;28;20037;-51
2022/03/04 11:26:09;;;;;;;23.70;13.07;;;8.80;49.80;;;;;;5020398;28;20053;-51
2022/03/04 11:28:42;;;;;;;16.75;12.00;;;8.90;50.50;;;;;;4992577;28;20042;-54
2022/03/04 11:31:12;;;;;;;19.00;12.63;;;8.90;49.40;;;;;;5012696;28;20081;-51
2022/03/04 11:34:00;;;;;;;19.55;13.07;;;9.00;49.40;;;;;;5008604;28;20069;-51
2022/03/04 11:36:33;;;;;;;16.08;11.05;;;9.10;48.90;;;;;;4991106;28;20034;-55
2022/03/04 11:39:06;;;;;;;14.43;9.75;;;9.20;48.80;;;;;;5010260;28;20038;-54
2022/03/04 11:41:37;;;;;;;15.93;10.55;;;9.20;48.30;;;;;;5006533;28;20425;-50
2022/03/04 11:44:20;;;;;;;12.63;8.90;;;9.30;48.30;;;;;;5012647;28;20065;-53
2022/03/04 11:46:50;;;;;;;12.73;8.80;;;9.40;48.30;;;;;;5008547;28;20497;-50
2022/03/04 11:49:38;;;;;;;10.60;7.93;;;9.40;47.90;;;;;;5006870;28;20050;-54
2022/03/04 11:52:11;;;;;;;14.05;9.52;;;9.50;47.40;;;;;;5015576;28;20065;-52
2022/03/04 11:54:49;;;;;;;14.65;9.73;;;9.60;47.70;;;;;;5024935;28;20187;-51
2022/03/04 11:57:25;;;;;;;12.00;9.13;;;9.70;47.90;;;;;;5024818;28;20038;-54
2022/03/04 11:59:58;;;;;;;15.50;10.82;;;9.70;48.00;;;;;;5012841;28;20041;-51
2022/03/04 12:02:29;;;;;;;16.13;10.35;;;9.80;47.90;;;;;;5010119;28;20045;-51
2022/03/04 12:05:22;;;;;;;14.88;11.32;;;9.90;48.10;;;;;;5021957;28;20418;-52
2022/03/04 12:07:55;;;;;;;15.30;11.30;;;10.00;47.80;;;;;;5030807;28;20037;-51
2022/03/04 12:10:25;;;;;;;16.58;10.57;;;10.10;47.40;;;;;;5011245;28;20045;-52
2022/03/04 12:13:02;;;;;;;15.43;10.88;;;10.20;47.10;;;;;;5015326;28;20045;-51
2022/03/04 12:15:31;;;;;;;14.98;10.40;;;10.30;46.60;;;;;;5019436;28;20115;-51
2022/03/04 12:18:05;;;;;;;16.00;11.35;;;10.30;46.70;;;;;;5006319;28;20038;-50
2022/03/04 12:20:40;;;;;;;17.52;11.23;;;10.40;46.00;;;;;;5007025;28;20049;-54
2022/03/04 12:23:15;;;;;;;15.35;11.48;;;10.50;45.20;;;;;;5015481;28;20509;-53
2022/03/04 12:25:53;;;;;;;14.55;10.70;;;10.50;45.60;;;;;;5012215;28;20046;-53
2022/03/04 12:28:27;;;;;;;16.83;11.43;;;10.60;45.40;;;;;;5011374;28;20060;-53
2022/03/04 12:31:02;;;;;;;18.02;11.43;;;10.60;46.00;;;;;;5018309;28;20069;-53
2022/03/04 12:33:38;;;;;;;19.17;13.13;;;10.70;45.90;;;;;;5013169;28;20049;-53
2022/03/04 12:36:08;;;;;;;16.45;12.55;;;10.80;45.40;;;;;;5022758;28;20042;-54
2022/03/04 12:38:41;;;;;;;15.77;10.82;;;10.80;45.40;;;;;;5016527;28;20111;-52
2022/03/04 12:41:17;;;;;;;16.38;11.43;;;10.80;44.90;;;;;;5014253;28;20042;-54
2022/03/04 12:43:46;;;;;;;15.68;11.65;;;10.90;45.10;;;;;;5014911;28;20037;-51
2022/03/04 12:46:15;;;;;;;17.77;13.00;;;11.00;44.80;;;;;;5012602;28;20087;-51